Terminal Aerodrome Forecast
Issued by NWS Greer, SC

Home | Current Version | Previous Version | Text Only | Print | Product List | Glossary On
Versions: 1 2 3 4 5 6 7 8 9 10 11 12 13 14 15
000
FTUS42 KGSP 230349 AAA
TAFAVL
TAF AMD
KAVL 230349Z 2304/2324 15006KT P6SM -RA OVC009
     FM230600 14006KT 3SM -SHRA BR SCT004 OVC008
     FM231200 13009KT 3SM SHRA BR OVC004 PROB30 2317/2323 2SM TSRA
      BR OVC003CB=

USA.gov is the U.S. government's official web portal to all federal, state and local government web resources and services.